sensor_id;sensor_type;location;lat;lon;timestamp;P1;durP1;ratioP1;P2;durP2;ratioP2
43690;SDS011;29293;52.190;21.226;2022-07-29T00:00:15;14.60;;;6.00;;
43690;SDS011;29293;52.190;21.226;2022-07-29T00:15:39;8.40;;;5.30;;
43690;SDS011;29293;52.190;21.226;2022-07-29T00:30:45;10.00;;;6.10;;
43690;SDS011;29293;52.190;21.226;2022-07-29T00:45:51;11.70;;;5.80;;
43690;SDS011;29293;52.190;21.226;2022-07-29T01:00:56;9.10;;;5.10;;
43690;SDS011;29293;52.190;21.226;2022-07-29T01:16:03;10.10;;;4.50;;
43690;SDS011;29293;52.190;21.226;2022-07-29T01:31:19;7.60;;;4.50;;
43690;SDS011;29293;52.190;21.226;2022-07-29T01:46:30;7.60;;;4.40;;
43690;SDS011;29293;52.190;21.226;2022-07-29T02:01:39;10.70;;;4.50;;
43690;SDS011;29293;52.190;21.226;2022-07-29T02:16:51;8.10;;;4.60;;
43690;SDS011;29293;52.190;21.226;2022-07-29T02:32:00;9.00;;;4.10;;
43690;SDS011;29293;52.190;21.226;2022-07-29T02:47:10;7.10;;;4.30;;
43690;SDS011;29293;52.190;21.226;2022-07-29T03:02:22;4.80;;;3.20;;
43690;SDS011;29293;52.190;21.226;2022-07-29T03:17:31;7.40;;;4.00;;
43690;SDS011;29293;52.190;21.226;2022-07-29T03:32:37;9.70;;;4.10;;
43690;SDS011;29293;52.190;21.226;2022-07-29T03:47:47;7.60;;;4.10;;
43690;SDS011;29293;52.190;21.226;2022-07-29T04:02:55;8.80;;;3.40;;
43690;SDS011;29293;52.190;21.226;2022-07-29T04:18:02;8.70;;;3.50;;
43690;SDS011;29293;52.190;21.226;2022-07-29T04:33:08;5.50;;;2.70;;
43690;SDS011;29293;52.190;21.226;2022-07-29T04:48:14;7.20;;;2.70;;
43690;SDS011;29293;52.190;21.226;2022-07-29T05:03:20;5.80;;;2.20;;
43690;SDS011;29293;52.190;21.226;2022-07-29T05:18:26;3.10;;;1.70;;
43690;SDS011;29293;52.190;21.226;2022-07-29T05:33:32;4.40;;;1.70;;
43690;SDS011;29293;52.190;21.226;2022-07-29T05:48:38;3.40;;;1.40;;
43690;SDS011;29293;52.190;21.226;2022-07-29T06:03:43;3.10;;;1.20;;
43690;SDS011;29293;52.190;21.226;2022-07-29T06:18:50;6.30;;;1.50;;
43690;SDS011;29293;52.190;21.226;2022-07-29T06:33:56;3.30;;;1.20;;
43690;SDS011;29293;52.190;21.226;2022-07-29T06:49:01;3.90;;;1.00;;
43690;SDS011;29293;52.190;21.226;2022-07-29T07:04:08;3.50;;;1.20;;
43690;SDS011;29293;52.190;21.226;2022-07-29T07:19:30;6.80;;;1.20;;
43690;SDS011;29293;52.190;21.226;2022-07-29T07:34:36;2.80;;;1.10;;
43690;SDS011;29293;52.190;21.226;2022-07-29T07:49:42;2.90;;;1.30;;
43690;SDS011;29293;52.190;21.226;2022-07-29T08:04:48;4.90;;;1.30;;
43690;SDS011;29293;52.190;21.226;2022-07-29T08:35:52;3.30;;;1.10;;
43690;SDS011;29293;52.190;21.226;2022-07-29T08:50:58;5.00;;;1.20;;
43690;SDS011;29293;52.190;21.226;2022-07-29T09:06:05;4.30;;;1.10;;
43690;SDS011;29293;52.190;21.226;2022-07-29T09:21:12;3.00;;;1.10;;
43690;SDS011;29293;52.190;21.226;2022-07-29T09:36:39;3.20;;;1.00;;
43690;SDS011;29293;52.190;21.226;2022-07-29T09:51:46;3.90;;;1.10;;
43690;SDS011;29293;52.190;21.226;2022-07-29T10:07:04;2.70;;;0.70;;
43690;SDS011;29293;52.190;21.226;2022-07-29T10:22:10;4.60;;;1.20;;
43690;SDS011;29293;52.190;21.226;2022-07-29T10:37:17;1.70;;;0.90;;
43690;SDS011;29293;52.190;21.226;2022-07-29T11:08:22;3.10;;;0.90;;
43690;SDS011;29293;52.190;21.226;2022-07-29T11:23:29;3.50;;;0.90;;
43690;SDS011;29293;52.190;21.226;2022-07-29T11:38:38;3.40;;;0.90;;
43690;SDS011;29293;52.190;21.226;2022-07-29T11:53:48;5.80;;;1.00;;
43690;SDS011;29293;52.190;21.226;2022-07-29T12:08:54;2.40;;;0.80;;
43690;SDS011;29293;52.190;21.226;2022-07-29T12:24:04;3.20;;;1.10;;
43690;SDS011;29293;52.190;21.226;2022-07-29T12:39:10;2.30;;;0.80;;
43690;SDS011;29293;52.190;21.226;2022-07-29T12:54:16;2.10;;;0.90;;
43690;SDS011;29293;52.190;21.226;2022-07-29T13:09:22;2.30;;;0.80;;
43690;SDS011;29293;52.190;21.226;2022-07-29T13:25:08;6.20;;;1.00;;
43690;SDS011;29293;52.190;21.226;2022-07-29T13:40:14;3.80;;;1.20;;
43690;SDS011;29293;52.190;21.226;2022-07-29T13:55:20;1.90;;;1.00;;
43690;SDS011;29293;52.190;21.226;2022-07-29T14:26:12;2.40;;;1.00;;
43690;SDS011;29293;52.190;21.226;2022-07-29T14:41:17;3.40;;;1.00;;
43690;SDS011;29293;52.190;21.226;2022-07-29T17:07:03;3.00;;;1.20;;
43690;SDS011;29293;52.190;21.226;2022-07-29T17:22:09;3.10;;;1.00;;
43690;SDS011;29293;52.190;21.226;2022-07-29T17:37:15;3.50;;;1.00;;
43690;SDS011;29293;52.190;21.226;2022-07-29T17:52:21;3.50;;;1.10;;
43690;SDS011;29293;52.190;21.226;2022-07-29T18:07:27;3.40;;;1.30;;
43690;SDS011;29293;52.190;21.226;2022-07-29T18:22:34;3.20;;;1.30;;
43690;SDS011;29293;52.190;21.226;2022-07-29T18:37:40;7.00;;;1.40;;
43690;SDS011;29293;52.190;21.226;2022-07-29T18:52:45;6.00;;;1.50;;
43690;SDS011;29293;52.190;21.226;2022-07-29T19:07:51;5.00;;;1.50;;
43690;SDS011;29293;52.190;21.226;2022-07-29T19:22:57;2.70;;;1.40;;
43690;SDS011;29293;52.190;21.226;2022-07-29T19:38:03;3.60;;;1.60;;
43690;SDS011;29293;52.190;21.226;2022-07-29T19:53:09;4.40;;;1.50;;
43690;SDS011;29293;52.190;21.226;2022-07-29T20:08:15;4.50;;;1.70;;
43690;SDS011;29293;52.190;21.226;2022-07-29T20:23:21;5.70;;;1.40;;
43690;SDS011;29293;52.190;21.226;2022-07-29T20:38:27;5.40;;;1.50;;
43690;SDS011;29293;52.190;21.226;2022-07-29T20:53:33;4.30;;;1.50;;
43690;SDS011;29293;52.190;21.226;2022-07-29T21:08:40;4.30;;;1.50;;
43690;SDS011;29293;52.190;21.226;2022-07-29T21:23:46;4.40;;;1.40;;
43690;SDS011;29293;52.190;21.226;2022-07-29T21:38:52;4.40;;;1.50;;
43690;SDS011;29293;52.190;21.226;2022-07-29T21:53:58;3.30;;;1.30;;
43690;SDS011;29293;52.190;21.226;2022-07-29T22:09:04;4.10;;;1.10;;
43690;SDS011;29293;52.190;21.226;2022-07-29T22:24:10;4.80;;;1.60;;
43690;SDS011;29293;52.190;21.226;2022-07-29T22:39:16;4.40;;;1.50;;
43690;SDS011;29293;52.190;21.226;2022-07-29T22:54:26;3.00;;;1.30;;
43690;SDS011;29293;52.190;21.226;2022-07-29T23:09:33;2.60;;;1.30;;
43690;SDS011;29293;52.190;21.226;2022-07-29T23:24:46;2.00;;;1.20;;
43690;SDS011;29293;52.190;21.226;2022-07-29T23:39:51;4.30;;;1.50;;
43690;SDS011;29293;52.190;21.226;2022-07-29T23:54:57;2.80;;;1.20;;
